sensor_id;sensor_type;location;lat;lon;timestamp;P1;durP1;ratioP1;P2;durP2;ratioP2
4377;SDS011;2203;53.686;9.994;2024-02-14T00:00:10;7.40;;;3.10;;
4377;SDS011;2203;53.686;9.994;2024-02-14T00:02:39;9.33;;;2.90;;
4377;SDS011;2203;53.686;9.994;2024-02-14T00:05:10;4.23;;;2.07;;
4377;SDS011;2203;53.686;9.994;2024-02-14T00:07:37;8.50;;;2.50;;
4377;SDS011;2203;53.686;9.994;2024-02-14T00:10:03;9.30;;;2.27;;
4377;SDS011;2203;53.686;9.994;2024-02-14T00:12:30;9.20;;;2.50;;
4377;SDS011;2203;53.686;9.994;2024-02-14T00:14:56;6.07;;;2.40;;
4377;SDS011;2203;53.686;9.994;2024-02-14T00:17:22;6.20;;;2.30;;
4377;SDS011;2203;53.686;9.994;2024-02-14T00:19:48;4.33;;;2.50;;
4377;SDS011;2203;53.686;9.994;2024-02-14T00:22:14;6.90;;;2.57;;
4377;SDS011;2203;53.686;9.994;2024-02-14T00:24:39;3.33;;;2.13;;
4377;SDS011;2203;53.686;9.994;2024-02-14T00:27:05;5.53;;;2.50;;
4377;SDS011;2203;53.686;9.994;2024-02-14T00:29:31;6.30;;;2.03;;
4377;SDS011;2203;53.686;9.994;2024-02-14T00:31:59;6.23;;;2.43;;
4377;SDS011;2203;53.686;9.994;2024-02-14T00:34:25;13.03;;;2.63;;
4377;SDS011;2203;53.686;9.994;2024-02-14T00:36:50;7.77;;;2.73;;
4377;SDS011;2203;53.686;9.994;2024-02-14T00:39:15;3.80;;;1.90;;
4377;SDS011;2203;53.686;9.994;2024-02-14T00:41:41;6.63;;;2.50;;
4377;SDS011;2203;53.686;9.994;2024-02-14T00:44:06;7.60;;;2.90;;
4377;SDS011;2203;53.686;9.994;2024-02-14T00:46:32;4.00;;;2.17;;
4377;SDS011;2203;53.686;9.994;2024-02-14T00:48:57;12.10;;;2.23;;
4377;SDS011;2203;53.686;9.994;2024-02-14T00:51:23;6.80;;;2.30;;
4377;SDS011;2203;53.686;9.994;2024-02-14T00:53:48;13.93;;;2.60;;
4377;SDS011;2203;53.686;9.994;2024-02-14T00:56:13;5.30;;;2.10;;
4377;SDS011;2203;53.686;9.994;2024-02-14T00:58:39;13.50;;;2.77;;
4377;SDS011;2203;53.686;9.994;2024-02-14T01:01:04;7.77;;;2.50;;
4377;SDS011;2203;53.686;9.994;2024-02-14T01:03:30;9.80;;;2.70;;
4377;SDS011;2203;53.686;9.994;2024-02-14T01:05:56;8.83;;;2.03;;
4377;SDS011;2203;53.686;9.994;2024-02-14T01:08:21;8.57;;;2.50;;
4377;SDS011;2203;53.686;9.994;2024-02-14T01:10:46;9.90;;;2.10;;
4377;SDS011;2203;53.686;9.994;2024-02-14T01:13:12;7.70;;;2.50;;
4377;SDS011;2203;53.686;9.994;2024-02-14T01:15:37;5.27;;;2.13;;
4377;SDS011;2203;53.686;9.994;2024-02-14T01:18:03;13.47;;;2.40;;
4377;SDS011;2203;53.686;9.994;2024-02-14T01:20:28;3.57;;;1.80;;
4377;SDS011;2203;53.686;9.994;2024-02-14T01:22:54;9.07;;;2.37;;
4377;SDS011;2203;53.686;9.994;2024-02-14T01:25:20;4.07;;;2.33;;
4377;SDS011;2203;53.686;9.994;2024-02-14T01:27:45;9.77;;;2.53;;
4377;SDS011;2203;53.686;9.994;2024-02-14T01:30:11;5.33;;;2.07;;
4377;SDS011;2203;53.686;9.994;2024-02-14T01:32:36;7.37;;;2.30;;
4377;SDS011;2203;53.686;9.994;2024-02-14T01:35:02;3.90;;;1.70;;
4377;SDS011;2203;53.686;9.994;2024-02-14T01:37:29;10.60;;;2.70;;
4377;SDS011;2203;53.686;9.994;2024-02-14T01:39:54;6.87;;;1.90;;
4377;SDS011;2203;53.686;9.994;2024-02-14T01:42:20;5.10;;;2.07;;
4377;SDS011;2203;53.686;9.994;2024-02-14T01:44:45;9.07;;;2.30;;
4377;SDS011;2203;53.686;9.994;2024-02-14T01:47:10;5.43;;;2.80;;
4377;SDS011;2203;53.686;9.994;2024-02-14T01:49:37;12.97;;;2.40;;
4377;SDS011;2203;53.686;9.994;2024-02-14T01:52:03;5.83;;;2.10;;
4377;SDS011;2203;53.686;9.994;2024-02-14T01:54:29;10.53;;;2.83;;
4377;SDS011;2203;53.686;9.994;2024-02-14T01:56:56;5.17;;;2.23;;
4377;SDS011;2203;53.686;9.994;2024-02-14T01:59:21;7.57;;;2.90;;
4377;SDS011;2203;53.686;9.994;2024-02-14T02:01:48;5.60;;;2.23;;
4377;SDS011;2203;53.686;9.994;2024-02-14T02:04:13;3.50;;;2.60;;
4377;SDS011;2203;53.686;9.994;2024-02-14T02:06:39;3.33;;;2.07;;
4377;SDS011;2203;53.686;9.994;2024-02-14T02:09:06;4.27;;;2.57;;
4377;SDS011;2203;53.686;9.994;2024-02-14T02:11:42;6.23;;;2.90;;
4377;SDS011;2203;53.686;9.994;2024-02-14T02:14:08;5.90;;;2.77;;
4377;SDS011;2203;53.686;9.994;2024-02-14T02:16:33;6.17;;;3.17;;
4377;SDS011;2203;53.686;9.994;2024-02-14T02:18:58;4.67;;;2.57;;
4377;SDS011;2203;53.686;9.994;2024-02-14T02:21:24;7.73;;;2.47;;
4377;SDS011;2203;53.686;9.994;2024-02-14T02:23:49;3.13;;;2.30;;
4377;SDS011;2203;53.686;9.994;2024-02-14T02:26:15;5.40;;;2.53;;
4377;SDS011;2203;53.686;9.994;2024-02-14T02:28:40;6.73;;;2.70;;
4377;SDS011;2203;53.686;9.994;2024-02-14T02:31:07;6.33;;;2.73;;
4377;SDS011;2203;53.686;9.994;2024-02-14T02:33:34;2.20;;;1.83;;
4377;SDS011;2203;53.686;9.994;2024-02-14T02:35:59;8.67;;;2.60;;
4377;SDS011;2203;53.686;9.994;2024-02-14T02:38:25;4.50;;;2.67;;
4377;SDS011;2203;53.686;9.994;2024-02-14T02:40:50;7.43;;;2.67;;
4377;SDS011;2203;53.686;9.994;2024-02-14T02:43:16;5.50;;;2.40;;
4377;SDS011;2203;53.686;9.994;2024-02-14T02:45:41;8.43;;;2.57;;
4377;SDS011;2203;53.686;9.994;2024-02-14T02:48:07;4.03;;;2.33;;
4377;SDS011;2203;53.686;9.994;2024-02-14T02:50:32;4.20;;;2.40;;
4377;SDS011;2203;53.686;9.994;2024-02-14T02:52:58;8.57;;;2.63;;
4377;SDS011;2203;53.686;9.994;2024-02-14T02:55:24;5.13;;;2.03;;
4377;SDS011;2203;53.686;9.994;2024-02-14T02:57:51;8.50;;;2.60;;
4377;SDS011;2203;53.686;9.994;2024-02-14T03:00:17;5.80;;;2.63;;
4377;SDS011;2203;53.686;9.994;2024-02-14T03:02:46;6.93;;;2.80;;
4377;SDS011;2203;53.686;9.994;2024-02-14T03:05:11;8.20;;;2.90;;
4377;SDS011;2203;53.686;9.994;2024-02-14T03:07:46;8.37;;;2.83;;
4377;SDS011;2203;53.686;9.994;2024-02-14T03:10:13;7.90;;;2.50;;
4377;SDS011;2203;53.686;9.994;2024-02-14T03:12:39;9.90;;;3.00;;
4377;SDS011;2203;53.686;9.994;2024-02-14T03:15:05;8.13;;;2.97;;
4377;SDS011;2203;53.686;9.994;2024-02-14T03:17:31;6.97;;;2.87;;
4377;SDS011;2203;53.686;9.994;2024-02-14T03:19:56;7.00;;;3.20;;
4377;SDS011;2203;53.686;9.994;2024-02-14T03:22:22;3.33;;;3.00;;
4377;SDS011;2203;53.686;9.994;2024-02-14T03:24:47;7.70;;;3.47;;
4377;SDS011;2203;53.686;9.994;2024-02-14T03:27:13;7.27;;;2.73;;
4377;SDS011;2203;53.686;9.994;2024-02-14T03:29:38;7.67;;;3.00;;
4377;SDS011;2203;53.686;9.994;2024-02-14T03:32:04;5.70;;;3.33;;
4377;SDS011;2203;53.686;9.994;2024-02-14T03:34:31;6.93;;;2.73;;
4377;SDS011;2203;53.686;9.994;2024-02-14T03:36:58;12.70;;;3.47;;
4377;SDS011;2203;53.686;9.994;2024-02-14T03:39:25;5.13;;;3.03;;
4377;SDS011;2203;53.686;9.994;2024-02-14T03:41:51;8.40;;;3.07;;
4377;SDS011;2203;53.686;9.994;2024-02-14T03:44:17;7.53;;;3.40;;
4377;SDS011;2203;53.686;9.994;2024-02-14T03:46:44;9.60;;;3.63;;
4377;SDS011;2203;53.686;9.994;2024-02-14T03:49:09;6.83;;;3.10;;
4377;SDS011;2203;53.686;9.994;2024-02-14T03:51:35;3.73;;;2.97;;
4377;SDS011;2203;53.686;9.994;2024-02-14T03:54:00;7.10;;;3.10;;
4377;SDS011;2203;53.686;9.994;2024-02-14T03:56:26;8.47;;;2.90;;
4377;SDS011;2203;53.686;9.994;2024-02-14T03:58:51;19.33;;;3.20;;
4377;SDS011;2203;53.686;9.994;2024-02-14T04:01:17;4.60;;;2.90;;
4377;SDS011;2203;53.686;9.994;2024-02-14T04:03:42;7.77;;;3.10;;
4377;SDS011;2203;53.686;9.994;2024-02-14T04:06:07;9.07;;;2.83;;
4377;SDS011;2203;53.686;9.994;2024-02-14T04:08:33;10.07;;;3.30;;
4377;SDS011;2203;53.686;9.994;2024-02-14T04:10:58;7.70;;;3.50;;
4377;SDS011;2203;53.686;9.994;2024-02-14T04:13:24;7.13;;;2.60;;
4377;SDS011;2203;53.686;9.994;2024-02-14T04:15:49;8.93;;;3.63;;
4377;SDS011;2203;53.686;9.994;2024-02-14T04:18:15;4.80;;;2.90;;
4377;SDS011;2203;53.686;9.994;2024-02-14T04:20:42;5.40;;;3.27;;
4377;SDS011;2203;53.686;9.994;2024-02-14T04:23:09;13.03;;;4.03;;
4377;SDS011;2203;53.686;9.994;2024-02-14T04:25:34;4.77;;;2.90;;
4377;SDS011;2203;53.686;9.994;2024-02-14T04:28:00;11.80;;;3.43;;
4377;SDS011;2203;53.686;9.994;2024-02-14T04:30:27;5.10;;;3.50;;
4377;SDS011;2203;53.686;9.994;2024-02-14T04:32:53;6.00;;;3.40;;
4377;SDS011;2203;53.686;9.994;2024-02-14T04:35:22;9.63;;;3.17;;
4377;SDS011;2203;53.686;9.994;2024-02-14T04:37:47;7.80;;;2.70;;
4377;SDS011;2203;53.686;9.994;2024-02-14T04:40:14;8.33;;;2.70;;
4377;SDS011;2203;53.686;9.994;2024-02-14T04:42:40;7.27;;;2.80;;
4377;SDS011;2203;53.686;9.994;2024-02-14T04:45:06;10.93;;;3.60;;
4377;SDS011;2203;53.686;9.994;2024-02-14T04:47:33;5.77;;;3.07;;
4377;SDS011;2203;53.686;9.994;2024-02-14T04:49:58;4.83;;;2.87;;
4377;SDS011;2203;53.686;9.994;2024-02-14T04:52:25;14.10;;;3.47;;
4377;SDS011;2203;53.686;9.994;2024-02-14T04:54:50;12.73;;;3.50;;
4377;SDS011;2203;53.686;9.994;2024-02-14T04:57:15;5.03;;;3.17;;
4377;SDS011;2203;53.686;9.994;2024-02-14T04:59:41;13.30;;;3.53;;
4377;SDS011;2203;53.686;9.994;2024-02-14T05:02:06;10.83;;;3.53;;
4377;SDS011;2203;53.686;9.994;2024-02-14T05:04:33;4.67;;;3.40;;
4377;SDS011;2203;53.686;9.994;2024-02-14T05:07:00;8.60;;;3.70;;
4377;SDS011;2203;53.686;9.994;2024-02-14T05:09:25;7.93;;;3.73;;
4377;SDS011;2203;53.686;9.994;2024-02-14T05:11:51;10.23;;;3.50;;
4377;SDS011;2203;53.686;9.994;2024-02-14T05:14:16;5.10;;;3.53;;
4377;SDS011;2203;53.686;9.994;2024-02-14T05:16:42;7.27;;;3.53;;
4377;SDS011;2203;53.686;9.994;2024-02-14T05:19:07;8.23;;;3.43;;
4377;SDS011;2203;53.686;9.994;2024-02-14T05:21:32;9.57;;;4.00;;
4377;SDS011;2203;53.686;9.994;2024-02-14T05:23:58;7.03;;;4.10;;
4377;SDS011;2203;53.686;9.994;2024-02-14T05:26:23;9.43;;;3.23;;
4377;SDS011;2203;53.686;9.994;2024-02-14T05:28:49;12.37;;;3.70;;
4377;SDS011;2203;53.686;9.994;2024-02-14T05:31:15;6.13;;;3.63;;
4377;SDS011;2203;53.686;9.994;2024-02-14T05:33:41;5.77;;;3.40;;
4377;SDS011;2203;53.686;9.994;2024-02-14T05:36:06;7.77;;;4.20;;
4377;SDS011;2203;53.686;9.994;2024-02-14T05:38:32;10.43;;;3.47;;
4377;SDS011;2203;53.686;9.994;2024-02-14T05:40:59;5.13;;;3.60;;
4377;SDS011;2203;53.686;9.994;2024-02-14T05:43:25;7.10;;;4.57;;
4377;SDS011;2203;53.686;9.994;2024-02-14T05:45:50;4.50;;;3.93;;
4377;SDS011;2203;53.686;9.994;2024-02-14T05:48:16;6.73;;;5.03;;
4377;SDS011;2203;53.686;9.994;2024-02-14T05:50:41;6.07;;;4.40;;
4377;SDS011;2203;53.686;9.994;2024-02-14T05:53:07;8.50;;;4.30;;
4377;SDS011;2203;53.686;9.994;2024-02-14T05:55:32;6.53;;;4.60;;
4377;SDS011;2203;53.686;9.994;2024-02-14T05:57:57;9.40;;;4.30;;
4377;SDS011;2203;53.686;9.994;2024-02-14T06:00:24;5.83;;;3.93;;
4377;SDS011;2203;53.686;9.994;2024-02-14T06:02:50;5.03;;;3.90;;
4377;SDS011;2203;53.686;9.994;2024-02-14T06:05:15;9.10;;;4.30;;
4377;SDS011;2203;53.686;9.994;2024-02-14T06:07:41;8.07;;;4.77;;
4377;SDS011;2203;53.686;9.994;2024-02-14T06:10:10;5.50;;;4.07;;
4377;SDS011;2203;53.686;9.994;2024-02-14T06:12:35;7.37;;;4.20;;
4377;SDS011;2203;53.686;9.994;2024-02-14T06:15:01;13.67;;;4.63;;
4377;SDS011;2203;53.686;9.994;2024-02-14T06:17:26;9.07;;;4.80;;
4377;SDS011;2203;53.686;9.994;2024-02-14T06:19:52;5.63;;;4.50;;
4377;SDS011;2203;53.686;9.994;2024-02-14T06:22:18;7.40;;;4.50;;
4377;SDS011;2203;53.686;9.994;2024-02-14T06:24:44;5.73;;;4.10;;
4377;SDS011;2203;53.686;9.994;2024-02-14T06:27:09;5.97;;;4.30;;
4377;SDS011;2203;53.686;9.994;2024-02-14T06:29:35;5.53;;;4.03;;
4377;SDS011;2203;53.686;9.994;2024-02-14T06:32:00;8.83;;;4.30;;
4377;SDS011;2203;53.686;9.994;2024-02-14T06:34:25;11.50;;;4.90;;
4377;SDS011;2203;53.686;9.994;2024-02-14T06:36:53;9.77;;;4.90;;
4377;SDS011;2203;53.686;9.994;2024-02-14T06:39:18;7.20;;;4.60;;
4377;SDS011;2203;53.686;9.994;2024-02-14T06:41:45;8.10;;;4.70;;
4377;SDS011;2203;53.686;9.994;2024-02-14T06:44:12;8.50;;;5.13;;
4377;SDS011;2203;53.686;9.994;2024-02-14T06:46:37;8.80;;;4.63;;
4377;SDS011;2203;53.686;9.994;2024-02-14T06:49:03;8.40;;;5.30;;
4377;SDS011;2203;53.686;9.994;2024-02-14T06:51:29;11.57;;;5.23;;
4377;SDS011;2203;53.686;9.994;2024-02-14T06:53:55;6.93;;;4.70;;
4377;SDS011;2203;53.686;9.994;2024-02-14T06:56:21;8.70;;;6.10;;
4377;SDS011;2203;53.686;9.994;2024-02-14T06:58:46;7.23;;;5.40;;
4377;SDS011;2203;53.686;9.994;2024-02-14T07:01:11;6.20;;;4.73;;
4377;SDS011;2203;53.686;9.994;2024-02-14T07:03:40;11.50;;;5.73;;
4377;SDS011;2203;53.686;9.994;2024-02-14T07:06:05;6.23;;;4.97;;
4377;SDS011;2203;53.686;9.994;2024-02-14T07:08:31;11.07;;;5.37;;
4377;SDS011;2203;53.686;9.994;2024-02-14T07:10:56;7.43;;;4.87;;
4377;SDS011;2203;53.686;9.994;2024-02-14T07:13:22;9.03;;;6.20;;
4377;SDS011;2203;53.686;9.994;2024-02-14T07:15:48;8.60;;;5.67;;
4377;SDS011;2203;53.686;9.994;2024-02-14T07:18:13;14.00;;;5.50;;
4377;SDS011;2203;53.686;9.994;2024-02-14T07:20:39;6.47;;;5.03;;
4377;SDS011;2203;53.686;9.994;2024-02-14T07:23:04;7.57;;;5.00;;
4377;SDS011;2203;53.686;9.994;2024-02-14T07:25:30;9.13;;;5.23;;
4377;SDS011;2203;53.686;9.994;2024-02-14T07:27:55;7.77;;;5.47;;
4377;SDS011;2203;53.686;9.994;2024-02-14T07:30:21;10.47;;;5.13;;
4377;SDS011;2203;53.686;9.994;2024-02-14T07:32:47;7.33;;;4.90;;
4377;SDS011;2203;53.686;9.994;2024-02-14T07:35:12;10.63;;;5.33;;
4377;SDS011;2203;53.686;9.994;2024-02-14T07:37:41;9.30;;;5.50;;
4377;SDS011;2203;53.686;9.994;2024-02-14T07:40:07;8.57;;;5.80;;
4377;SDS011;2203;53.686;9.994;2024-02-14T07:42:33;6.73;;;5.30;;
4377;SDS011;2203;53.686;9.994;2024-02-14T07:44:58;8.20;;;5.23;;
4377;SDS011;2203;53.686;9.994;2024-02-14T07:47:24;6.83;;;4.80;;
4377;SDS011;2203;53.686;9.994;2024-02-14T07:49:49;7.90;;;5.30;;
4377;SDS011;2203;53.686;9.994;2024-02-14T07:52:14;10.20;;;6.40;;
4377;SDS011;2203;53.686;9.994;2024-02-14T07:54:40;9.30;;;5.90;;
4377;SDS011;2203;53.686;9.994;2024-02-14T07:57:06;8.57;;;6.30;;
4377;SDS011;2203;53.686;9.994;2024-02-14T07:59:31;7.70;;;5.20;;
4377;SDS011;2203;53.686;9.994;2024-02-14T08:01:57;10.93;;;5.57;;
4377;SDS011;2203;53.686;9.994;2024-02-14T08:04:22;9.17;;;6.03;;
4377;SDS011;2203;53.686;9.994;2024-02-14T08:06:47;10.40;;;5.60;;
4377;SDS011;2203;53.686;9.994;2024-02-14T08:09:14;8.53;;;5.90;;
4377;SDS011;2203;53.686;9.994;2024-02-14T08:11:39;8.30;;;5.87;;
4377;SDS011;2203;53.686;9.994;2024-02-14T08:14:05;9.40;;;6.40;;
4377;SDS011;2203;53.686;9.994;2024-02-14T08:16:30;7.37;;;5.20;;
4377;SDS011;2203;53.686;9.994;2024-02-14T08:18:56;6.67;;;5.27;;
4377;SDS011;2203;53.686;9.994;2024-02-14T08:21:27;8.60;;;5.50;;
4377;SDS011;2203;53.686;9.994;2024-02-14T08:23:53;11.43;;;7.60;;
4377;SDS011;2203;53.686;9.994;2024-02-14T08:26:20;7.50;;;5.67;;
4377;SDS011;2203;53.686;9.994;2024-02-14T08:28:51;10.23;;;6.33;;
4377;SDS011;2203;53.686;9.994;2024-02-14T08:31:16;10.70;;;5.63;;
4377;SDS011;2203;53.686;9.994;2024-02-14T08:33:42;6.90;;;5.97;;
4377;SDS011;2203;53.686;9.994;2024-02-14T08:36:08;6.87;;;5.70;;
4377;SDS011;2203;53.686;9.994;2024-02-14T08:38:33;8.43;;;5.80;;
4377;SDS011;2203;53.686;9.994;2024-02-14T08:41:00;10.03;;;6.00;;
4377;SDS011;2203;53.686;9.994;2024-02-14T08:43:26;11.00;;;6.23;;
4377;SDS011;2203;53.686;9.994;2024-02-14T08:45:53;10.53;;;5.43;;
4377;SDS011;2203;53.686;9.994;2024-02-14T08:48:19;8.30;;;5.80;;
4377;SDS011;2203;53.686;9.994;2024-02-14T08:50:44;9.13;;;5.43;;
4377;SDS011;2203;53.686;9.994;2024-02-14T08:53:11;8.63;;;6.00;;
4377;SDS011;2203;53.686;9.994;2024-02-14T08:55:38;7.20;;;5.90;;
4377;SDS011;2203;53.686;9.994;2024-02-14T08:58:06;10.73;;;7.10;;
4377;SDS011;2203;53.686;9.994;2024-02-14T09:00:34;9.00;;;5.90;;
4377;SDS011;2203;53.686;9.994;2024-02-14T09:03:00;9.83;;;6.17;;
4377;SDS011;2203;53.686;9.994;2024-02-14T09:05:26;11.30;;;6.57;;
4377;SDS011;2203;53.686;9.994;2024-02-14T09:07:53;6.63;;;5.03;;
4377;SDS011;2203;53.686;9.994;2024-02-14T09:10:18;7.73;;;5.40;;
4377;SDS011;2203;53.686;9.994;2024-02-14T09:12:44;10.40;;;5.87;;
4377;SDS011;2203;53.686;9.994;2024-02-14T09:15:09;11.20;;;5.40;;
4377;SDS011;2203;53.686;9.994;2024-02-14T09:17:36;9.23;;;6.30;;
4377;SDS011;2203;53.686;9.994;2024-02-14T09:20:03;8.37;;;5.40;;
4377;SDS011;2203;53.686;9.994;2024-02-14T09:22:31;14.07;;;6.20;;
4377;SDS011;2203;53.686;9.994;2024-02-14T09:24:57;17.90;;;6.20;;
4377;SDS011;2203;53.686;9.994;2024-02-14T09:27:22;7.33;;;5.57;;
4377;SDS011;2203;53.686;9.994;2024-02-14T09:29:48;7.00;;;5.57;;
4377;SDS011;2203;53.686;9.994;2024-02-14T09:32:13;13.80;;;6.10;;
4377;SDS011;2203;53.686;9.994;2024-02-14T09:34:39;6.27;;;5.13;;
4377;SDS011;2203;53.686;9.994;2024-02-14T09:37:04;7.83;;;5.40;;
4377;SDS011;2203;53.686;9.994;2024-02-14T09:39:31;8.23;;;5.30;;
4377;SDS011;2203;53.686;9.994;2024-02-14T09:41:58;6.90;;;4.83;;
4377;SDS011;2203;53.686;9.994;2024-02-14T09:44:27;7.90;;;5.13;;
4377;SDS011;2203;53.686;9.994;2024-02-14T09:46:54;10.17;;;4.23;;
4377;SDS011;2203;53.686;9.994;2024-02-14T09:49:20;12.83;;;4.40;;
4377;SDS011;2203;53.686;9.994;2024-02-14T09:51:46;8.73;;;4.70;;
4377;SDS011;2203;53.686;9.994;2024-02-14T09:54:14;6.03;;;4.07;;
4377;SDS011;2203;53.686;9.994;2024-02-14T09:56:39;6.30;;;4.30;;
4377;SDS011;2203;53.686;9.994;2024-02-14T09:59:04;6.37;;;4.77;;
4377;SDS011;2203;53.686;9.994;2024-02-14T10:01:31;7.80;;;3.97;;
4377;SDS011;2203;53.686;9.994;2024-02-14T10:03:56;5.07;;;4.10;;
4377;SDS011;2203;53.686;9.994;2024-02-14T10:06:22;5.90;;;4.80;;
4377;SDS011;2203;53.686;9.994;2024-02-14T10:08:49;14.30;;;4.07;;
4377;SDS011;2203;53.686;9.994;2024-02-14T10:11:16;4.90;;;3.80;;
4377;SDS011;2203;53.686;9.994;2024-02-14T10:13:45;4.90;;;4.13;;
4377;SDS011;2203;53.686;9.994;2024-02-14T10:16:12;5.43;;;3.43;;
4377;SDS011;2203;53.686;9.994;2024-02-14T10:18:38;5.63;;;3.60;;
4377;SDS011;2203;53.686;9.994;2024-02-14T10:21:04;4.00;;;3.60;;
4377;SDS011;2203;53.686;9.994;2024-02-14T10:23:29;5.00;;;3.67;;
4377;SDS011;2203;53.686;9.994;2024-02-14T10:25:55;5.30;;;4.27;;
4377;SDS011;2203;53.686;9.994;2024-02-14T10:28:21;5.10;;;3.87;;
4377;SDS011;2203;53.686;9.994;2024-02-14T10:30:47;6.47;;;3.80;;
4377;SDS011;2203;53.686;9.994;2024-02-14T10:33:14;6.83;;;3.80;;
4377;SDS011;2203;53.686;9.994;2024-02-14T10:35:40;3.93;;;3.43;;
4377;SDS011;2203;53.686;9.994;2024-02-14T10:38:07;3.67;;;3.23;;
4377;SDS011;2203;53.686;9.994;2024-02-14T10:40:35;4.20;;;3.80;;
4377;SDS011;2203;53.686;9.994;2024-02-14T10:43:01;4.87;;;3.50;;
4377;SDS011;2203;53.686;9.994;2024-02-14T10:45:27;4.33;;;3.80;;
4377;SDS011;2203;53.686;9.994;2024-02-14T10:47:55;5.53;;;3.83;;
4377;SDS011;2203;53.686;9.994;2024-02-14T10:50:22;6.10;;;3.63;;
4377;SDS011;2203;53.686;9.994;2024-02-14T10:52:49;6.03;;;3.43;;
4377;SDS011;2203;53.686;9.994;2024-02-14T10:55:16;4.40;;;3.67;;
4377;SDS011;2203;53.686;9.994;2024-02-14T10:57:45;4.30;;;3.80;;
4377;SDS011;2203;53.686;9.994;2024-02-14T11:00:11;6.17;;;3.53;;
4377;SDS011;2203;53.686;9.994;2024-02-14T11:02:39;6.07;;;3.77;;
4377;SDS011;2203;53.686;9.994;2024-02-14T11:05:05;3.87;;;3.47;;
4377;SDS011;2203;53.686;9.994;2024-02-14T11:07:32;4.13;;;3.53;;
4377;SDS011;2203;53.686;9.994;2024-02-14T11:10:04;5.70;;;4.00;;
4377;SDS011;2203;53.686;9.994;2024-02-14T11:12:34;4.20;;;3.43;;
4377;SDS011;2203;53.686;9.994;2024-02-14T11:15:01;3.27;;;2.97;;
4377;SDS011;2203;53.686;9.994;2024-02-14T11:17:33;4.20;;;3.43;;
4377;SDS011;2203;53.686;9.994;2024-02-14T11:19:59;3.73;;;3.33;;
4377;SDS011;2203;53.686;9.994;2024-02-14T11:22:24;4.70;;;3.67;;
4377;SDS011;2203;53.686;9.994;2024-02-14T11:24:51;3.50;;;3.20;;
4377;SDS011;2203;53.686;9.994;2024-02-14T11:27:18;4.23;;;3.70;;
4377;SDS011;2203;53.686;9.994;2024-02-14T11:29:51;3.23;;;2.93;;
4377;SDS011;2203;53.686;9.994;2024-02-14T11:32:17;6.90;;;3.73;;
4377;SDS011;2203;53.686;9.994;2024-02-14T11:34:43;4.23;;;3.77;;
4377;SDS011;2203;53.686;9.994;2024-02-14T11:37:09;3.40;;;3.10;;
4377;SDS011;2203;53.686;9.994;2024-02-14T11:39:34;4.67;;;3.83;;
4377;SDS011;2203;53.686;9.994;2024-02-14T11:42:00;5.50;;;3.37;;
4377;SDS011;2203;53.686;9.994;2024-02-14T11:44:25;4.33;;;3.93;;
4377;SDS011;2203;53.686;9.994;2024-02-14T11:46:51;5.57;;;3.80;;
4377;SDS011;2203;53.686;9.994;2024-02-14T11:49:17;6.70;;;3.67;;
4377;SDS011;2203;53.686;9.994;2024-02-14T11:51:43;7.63;;;4.03;;
4377;SDS011;2203;53.686;9.994;2024-02-14T11:54:09;3.57;;;3.10;;
4377;SDS011;2203;53.686;9.994;2024-02-14T11:56:38;4.50;;;3.70;;
4377;SDS011;2203;53.686;9.994;2024-02-14T11:59:04;4.73;;;4.23;;
4377;SDS011;2203;53.686;9.994;2024-02-14T12:01:30;5.00;;;4.00;;
4377;SDS011;2203;53.686;9.994;2024-02-14T12:04:00;5.40;;;3.83;;
4377;SDS011;2203;53.686;9.994;2024-02-14T12:06:27;5.90;;;4.20;;
4377;SDS011;2203;53.686;9.994;2024-02-14T12:08:54;4.83;;;4.37;;
4377;SDS011;2203;53.686;9.994;2024-02-14T12:11:19;6.63;;;4.83;;
4377;SDS011;2203;53.686;9.994;2024-02-14T12:13:49;4.63;;;3.90;;
4377;SDS011;2203;53.686;9.994;2024-02-14T12:16:15;5.97;;;4.70;;
4377;SDS011;2203;53.686;9.994;2024-02-14T12:18:41;7.20;;;4.17;;
4377;SDS011;2203;53.686;9.994;2024-02-14T12:21:06;4.90;;;3.97;;
4377;SDS011;2203;53.686;9.994;2024-02-14T12:23:35;6.03;;;3.60;;
4377;SDS011;2203;53.686;9.994;2024-02-14T12:26:03;5.00;;;4.23;;
4377;SDS011;2203;53.686;9.994;2024-02-14T12:28:30;4.20;;;3.80;;
4377;SDS011;2203;53.686;9.994;2024-02-14T12:30:59;3.97;;;3.57;;
4377;SDS011;2203;53.686;9.994;2024-02-14T12:33:25;4.60;;;3.60;;
4377;SDS011;2203;53.686;9.994;2024-02-14T12:35:52;5.47;;;3.90;;
4377;SDS011;2203;53.686;9.994;2024-02-14T12:38:19;4.43;;;3.50;;
4377;SDS011;2203;53.686;9.994;2024-02-14T12:40:45;5.57;;;3.93;;
4377;SDS011;2203;53.686;9.994;2024-02-14T12:43:11;4.27;;;3.50;;
4377;SDS011;2203;53.686;9.994;2024-02-14T12:45:37;5.20;;;3.60;;
4377;SDS011;2203;53.686;9.994;2024-02-14T12:48:04;3.70;;;3.40;;
4377;SDS011;2203;53.686;9.994;2024-02-14T12:50:30;4.70;;;3.73;;
4377;SDS011;2203;53.686;9.994;2024-02-14T12:52:57;4.23;;;3.43;;
4377;SDS011;2203;53.686;9.994;2024-02-14T12:55:23;3.63;;;2.53;;
4377;SDS011;2203;53.686;9.994;2024-02-14T12:57:50;3.60;;;2.73;;
4377;SDS011;2203;53.686;9.994;2024-02-14T13:00:18;3.97;;;3.30;;
4377;SDS011;2203;53.686;9.994;2024-02-14T13:02:44;5.40;;;4.00;;
4377;SDS011;2203;53.686;9.994;2024-02-14T13:05:09;3.97;;;2.90;;
4377;SDS011;2203;53.686;9.994;2024-02-14T13:07:34;3.77;;;2.83;;
4377;SDS011;2203;53.686;9.994;2024-02-14T13:10:00;7.33;;;3.20;;
4377;SDS011;2203;53.686;9.994;2024-02-14T13:12:26;3.87;;;3.10;;
4377;SDS011;2203;53.686;9.994;2024-02-14T13:14:51;3.37;;;3.07;;
4377;SDS011;2203;53.686;9.994;2024-02-14T13:17:16;6.07;;;3.20;;
4377;SDS011;2203;53.686;9.994;2024-02-14T13:19:42;3.70;;;3.40;;
4377;SDS011;2203;53.686;9.994;2024-02-14T13:22:08;5.37;;;3.33;;
4377;SDS011;2203;53.686;9.994;2024-02-14T13:24:34;4.40;;;3.30;;
4377;SDS011;2203;53.686;9.994;2024-02-14T13:26:59;6.07;;;3.80;;
4377;SDS011;2203;53.686;9.994;2024-02-14T13:29:24;7.30;;;4.23;;
4377;SDS011;2203;53.686;9.994;2024-02-14T13:31:50;4.83;;;3.70;;
4377;SDS011;2203;53.686;9.994;2024-02-14T13:34:16;4.53;;;3.80;;
4377;SDS011;2203;53.686;9.994;2024-02-14T13:36:44;9.43;;;5.30;;
4377;SDS011;2203;53.686;9.994;2024-02-14T13:39:10;6.40;;;4.87;;
4377;SDS011;2203;53.686;9.994;2024-02-14T13:41:37;7.40;;;5.93;;
4377;SDS011;2203;53.686;9.994;2024-02-14T13:44:03;7.53;;;5.80;;
4377;SDS011;2203;53.686;9.994;2024-02-14T13:46:29;8.67;;;6.23;;
4377;SDS011;2203;53.686;9.994;2024-02-14T13:48:55;7.50;;;5.67;;
4377;SDS011;2203;53.686;9.994;2024-02-14T13:51:20;7.70;;;6.10;;
4377;SDS011;2203;53.686;9.994;2024-02-14T13:53:46;8.93;;;6.30;;
4377;SDS011;2203;53.686;9.994;2024-02-14T13:56:12;8.73;;;6.30;;
4377;SDS011;2203;53.686;9.994;2024-02-14T13:58:37;10.07;;;6.83;;
4377;SDS011;2203;53.686;9.994;2024-02-14T14:01:06;12.00;;;7.33;;
4377;SDS011;2203;53.686;9.994;2024-02-14T14:03:32;10.40;;;7.10;;
4377;SDS011;2203;53.686;9.994;2024-02-14T14:05:59;10.00;;;7.60;;
4377;SDS011;2203;53.686;9.994;2024-02-14T14:08:25;11.30;;;7.73;;
4377;SDS011;2203;53.686;9.994;2024-02-14T14:10:50;8.77;;;6.63;;
4377;SDS011;2203;53.686;9.994;2024-02-14T14:13:16;11.80;;;7.40;;
4377;SDS011;2203;53.686;9.994;2024-02-14T14:15:41;13.37;;;7.80;;
4377;SDS011;2203;53.686;9.994;2024-02-14T14:18:07;14.10;;;8.20;;
4377;SDS011;2203;53.686;9.994;2024-02-14T14:20:33;11.63;;;7.70;;
4377;SDS011;2203;53.686;9.994;2024-02-14T14:22:59;10.43;;;7.57;;
4377;SDS011;2203;53.686;9.994;2024-02-14T14:25:25;11.43;;;8.00;;
4377;SDS011;2203;53.686;9.994;2024-02-14T14:27:53;10.40;;;7.40;;
4377;SDS011;2203;53.686;9.994;2024-02-14T14:30:18;9.63;;;7.73;;
4377;SDS011;2203;53.686;9.994;2024-02-14T14:32:44;12.07;;;8.70;;
4377;SDS011;2203;53.686;9.994;2024-02-14T14:35:09;11.47;;;7.63;;
4377;SDS011;2203;53.686;9.994;2024-02-14T14:37:37;12.73;;;7.73;;
4377;SDS011;2203;53.686;9.994;2024-02-14T14:40:03;12.07;;;8.70;;
4377;SDS011;2203;53.686;9.994;2024-02-14T14:42:30;8.97;;;7.40;;
4377;SDS011;2203;53.686;9.994;2024-02-14T14:44:55;14.30;;;7.97;;
4377;SDS011;2203;53.686;9.994;2024-02-14T14:47:21;12.70;;;8.60;;
4377;SDS011;2203;53.686;9.994;2024-02-14T14:49:47;11.70;;;8.00;;
4377;SDS011;2203;53.686;9.994;2024-02-14T14:52:13;13.43;;;8.20;;
4377;SDS011;2203;53.686;9.994;2024-02-14T14:54:39;14.17;;;8.17;;
4377;SDS011;2203;53.686;9.994;2024-02-14T14:57:04;15.80;;;9.10;;
4377;SDS011;2203;53.686;9.994;2024-02-14T14:59:34;13.10;;;8.80;;
4377;SDS011;2203;53.686;9.994;2024-02-14T15:02:00;12.17;;;8.47;;
4377;SDS011;2203;53.686;9.994;2024-02-14T15:04:26;12.67;;;8.93;;